Time;durP1;ratioP1;P1;durP2;ratioP2;P2;SDS_P1;SDS_P2;PMS_P1;PMS_P2;Temp;Humidity;BMP_temperature;BMP_pressure;BME280_temperature;BME280_humidity;BME280_pressure;Samples;Min_cycle;Max_cycle;Signal;HPM_P1;HPM_P2
2022/03/12 00:03:23;;;;;;;;;;;;;;;;;;;;;
2022/03/12 00:10:00;;;;;;;;;;;;;;;;;;;;;
2022/03/12 00:12:44;;;;;;;;;;;;;;;;;;;;;
2022/03/12 00:15:21;;;;;;;;;;;;;;;;;;;;;
2022/03/12 00:17:50;;;;;;;;;3.00;2.25;;;;;10.62;67.10;100920.19;6274304;22;73090;-78
2022/03/12 00:20:21;;;;;;;;;4.00;2.75;;;;;10.54;66.81;100899.13;6250242;22;46103;-79
2022/03/12 00:22:58;;;;;;;;;3.00;1.00;;;;;10.62;66.98;100925.44;6248910;22;45935;-78
2022/03/12 00:25:26;;;;;;;;;4.00;3.00;;;;;10.57;66.86;100912.28;6249771;22;45283;-78
2022/03/12 00:27:56;;;;;;;;;3.00;2.00;;;;;10.57;66.79;100918.41;6252423;22;45620;-79
2022/03/12 00:30:26;;;;;;;;;4.25;3.00;;;;;10.70;66.71;100928.94;6251434;22;47137;-78
2022/03/12 00:32:57;;;;;;;;;5.00;4.00;;;;;10.75;66.50;100932.44;6250184;22;45368;-78
2022/03/12 00:35:23;;;;;;;;;2.50;2.00;;;;;10.77;66.39;100935.94;6251054;22;44785;-78
2022/03/12 00:37:59;;;;;;;;;2.00;2.00;;;;;10.77;66.22;100938.56;6247572;22;45385;-79
2022/03/12 00:40:48;;;;;;;;;2.50;2.50;;;;;10.68;66.23;100922.78;6249538;22;47241;-78
2022/03/12 00:43:46;;;;;;;;;;;;;;;;;;;;;
2022/03/12 00:50:55;;;;;;;;;;;;;;;;;;;;;
2022/03/12 00:54:29;;;;;;;;;;;;;;;;;;;;;
2022/03/12 00:57:45;;;;;;;;;;;;;;;;;;;;;
2022/03/12 01:08:03;;;;;;;;;6.75;5.00;;;;;10.58;65.88;100959.69;6077628;22;45531;-78
2022/03/12 01:10:09;;;;;;;;;3.50;2.00;;;;;10.58;65.84;100966.66;6253498;22;45470;-80
2022/03/12 01:12:45;;;;;;;;;2.00;2.00;;;;;10.66;65.98;100979.84;6279277;22;45358;-78
2022/03/12 01:15:11;;;;;;;;;5.50;3.50;;;;;10.69;66.10;100987.72;6250707;22;45478;-79
2022/03/12 01:28:01;;;;;;;;;;;;;;;;;;;;;
2022/03/12 01:31:04;;;;;;;;;3.75;3.75;;;;;10.78;65.58;100990.38;6209331;22;75217;-79
2022/03/12 01:33:46;;;;;;;;;;;;;;;;;;;;;
2022/03/12 01:36:25;;;;;;;;;;;;;;;;;;;;;
2022/03/12 01:39:28;;;;;;;;;3.25;3.00;;;;;10.73;65.57;100993.00;6277587;22;74062;-80
2022/03/12 01:42:25;;;;;;;;;;;;;;;;;;;;;
2022/03/12 01:45:14;;;;;;;;;;;;;;;;;;;;;
2022/03/12 01:48:23;;;;;;;;;;;;;;;;;;;;;
2022/03/12 01:51:10;;;;;;;;;;;;;;;;;;;;;
2022/03/12 01:53:50;;;;;;;;;4.00;3.25;;;;;10.54;65.84;100991.25;6276397;22;73437;-78
2022/03/12 01:56:18;;;;;;;;;3.50;3.00;;;;;10.61;65.75;101000.91;6250868;22;45469;-79
2022/03/12 01:58:57;;;;;;;;;;;;;;;;;;;;;
2022/03/12 02:01:46;;;;;;;;;;;;;;;;;;;;;
2022/03/12 02:04:29;;;;;;;;;2.00;1.75;;;;;10.67;65.72;101002.69;6277915;22;74436;-79
2022/03/12 02:06:58;;;;;;;;;4.25;4.25;;;;;10.58;65.78;100991.28;6251332;22;45330;-79
2022/03/12 02:09:27;;;;;;;;;2.25;2.25;;;;;10.68;65.67;101004.41;6251061;22;45199;-79
2022/03/12 02:12:05;;;;;;;;;3.00;3.00;;;;;10.59;65.71;101007.94;6277183;22;45340;-79
2022/03/12 02:14:36;;;;;;;;;4.25;3.75;;;;;10.54;65.65;101002.66;6279417;22;46313;-79
2022/03/12 02:17:17;;;;;;;;;;;;;;;;;;;;;
2022/03/12 02:19:52;;;;;;;;;4.50;2.50;;;;;10.49;65.86;101012.31;6277576;22;70278;-78
2022/03/12 02:22:18;;;;;;;;;4.00;4.00;;;;;10.62;65.91;101022.84;6251129;22;45538;-79
2022/03/12 02:24:48;;;;;;;;;4.50;4.00;;;;;10.62;65.50;101017.59;6278782;22;45421;-79
2022/03/12 02:27:45;;;;;;;;;;;;;;;;;;;;;
2022/03/12 02:30:31;;;;;;;;;;;;;;;;;;;;;
2022/03/12 02:33:16;;;;;;;;;;;;;;;;;;;;;
2022/03/12 02:36:16;;;;;;;;;;;;;;;;;;;;;
2022/03/12 02:39:21;;;;;;;;;;;;;;;;;;;;;
2022/03/12 02:42:08;;;;;;;;;4.75;4.00;;;;;10.62;65.57;101036.91;6277716;22;67649;-79
2022/03/12 02:44:48;;;;;;;;;4.00;4.00;;;;;10.52;65.56;101009.66;6279404;22;45274;-79
2022/03/12 02:47:34;;;;;;;;;;;;;;;;;;;;;
2022/03/12 02:50:33;;;;;;;;;2.75;2.75;;;;;10.56;65.51;101016.72;6277810;22;72956;-79
2022/03/12 02:57:14;;;;;;;;;;;;;;;;;;;;;
2022/03/12 03:07:28;;;;;;;;;;;;;;;;;;;;;
2022/03/12 03:17:25;;;;;;;;;;;;;;;;;;;;;
2022/03/12 03:53:03;;;;;;;;;;;;;;;;;;;;;
2022/03/12 06:43:50;;;;;;;;;;;;;;;;;;;;;
2022/03/12 06:46:16;;;;;;;;;6.50;6.00;;;;;9.77;66.86;101159.34;6185838;23;68498;-79
2022/03/12 06:48:42;;;;;;;;;4.25;4.25;;;;;9.86;66.47;101174.28;6185962;23;45456;-80
2022/03/12 06:51:11;;;;;;;;;5.00;5.00;;;;;9.78;66.56;101166.34;6186163;23;47083;-79
2022/03/12 06:53:49;;;;;;;;;5.50;5.25;;;;;9.80;66.54;101185.66;6187732;22;45106;-80
2022/03/12 07:03:07;;;;;;;;;6.00;5.00;;;;;9.79;66.25;101206.69;6182491;23;45552;-79
2022/03/12 07:06:07;;;;;;;;;4.25;4.25;;;;;9.80;66.19;101224.22;6185566;23;45357;-79
2022/03/12 07:08:41;;;;;;;;;4.75;4.00;;;;;9.63;66.02;101198.69;6176153;23;45287;-80
2022/03/12 07:11:30;;;;;;;;;;;;;;;;;;;;;
2022/03/12 07:14:25;;;;;;;;;;;;;;;;;;;;;
2022/03/12 07:16:53;;;;;;;;;4.50;4.00;;;;;9.66;66.35;101224.13;6187192;23;72805;-79
2022/03/12 07:19:18;;;;;;;;;5.25;5.25;;;;;9.64;66.62;101207.44;6187844;23;45356;-78
2022/03/12 07:21:43;;;;;;;;;5.50;5.50;;;;;9.70;66.50;101223.25;6184621;23;45255;-79
2022/03/12 07:24:09;;;;;;;;;5.00;4.00;;;;;9.62;66.24;101209.16;6184813;23;46383;-78
2022/03/12 07:26:34;;;;;;;;;4.25;3.75;;;;;9.69;66.37;101221.50;6184837;23;45319;-78
2022/03/12 07:29:02;;;;;;;;;6.25;6.00;;;;;9.74;66.39;101224.19;6184797;23;45268;-79
2022/03/12 07:31:28;;;;;;;;;6.75;4.25;;;;;9.82;65.97;101247.03;6184894;23;45490;-79
2022/03/12 07:33:53;;;;;;;;;6.75;6.25;;;;;9.85;66.22;101231.25;6186872;22;45452;-78
2022/03/12 07:36:19;;;;;;;;;5.50;4.00;;;;;9.74;66.01;101211.91;6184407;23;45366;-78
2022/03/12 07:38:44;;;;;;;;;6.75;5.25;;;;;9.90;66.19;101232.19;6184618;23;45316;-78
2022/03/12 07:41:10;;;;;;;;;5.50;5.50;;;;;9.90;65.83;101231.31;6184413;23;45464;-78
2022/03/12 07:43:36;;;;;;;;;7.00;7.00;;;;;9.88;65.99;101222.53;6184229;23;46946;-78
2022/03/12 07:46:03;;;;;;;;;3.00;3.00;;;;;9.98;66.23;101234.88;6184577;23;45218;-78
2022/03/12 07:48:28;;;;;;;;;5.25;4.25;;;;;10.00;65.86;101224.38;6186887;22;45375;-78
2022/03/12 07:50:55;;;;;;;;;5.00;5.00;;;;;10.03;65.64;101217.38;6186544;22;45154;-79
2022/03/12 07:53:56;;;;;;;;;6.75;5.00;;;;;10.15;65.68;101237.59;6183868;23;47105;-80
2022/03/12 07:56:43;;;;;;;;;9.00;3.00;;;;;10.11;65.76;101215.66;6183942;23;45359;-79
2022/03/12 08:03:28;;;;;;;;;6.25;6.25;;;;;10.24;65.25;101240.28;6154752;23;45408;-80
2022/03/12 08:05:54;;;;;;;;;4.00;4.00;;;;;10.24;65.32;101236.78;6183415;23;46134;-79
2022/03/12 08:08:22;;;;;;;;;4.25;3.50;;;;;10.31;65.13;101247.34;6172459;23;45443;-79
2022/03/12 08:13:37;;;;;;;;;4.00;4.00;;;;;10.35;64.93;101251.78;6185439;23;45279;-81
2022/03/12 08:16:05;;;;;;;;;4.25;3.75;;;;;10.37;65.17;101259.66;6183445;23;47141;-80
2022/03/12 08:18:33;;;;;;;;;5.25;4.00;;;;;10.53;64.95;101277.34;6183840;23;45419;-80
2022/03/12 08:20:59;;;;;;;;;3.50;3.50;;;;;10.52;64.76;101282.56;6183896;23;45118;-80
2022/03/12 08:23:27;;;;;;;;;4.50;4.00;;;;;10.50;64.62;101276.41;6185902;23;45158;-80
2022/03/12 08:25:52;;;;;;;;;3.25;3.25;;;;;10.52;64.55;101279.94;6183176;23;47089;-79
2022/03/12 08:28:18;;;;;;;;;6.00;4.00;;;;;10.49;64.70;101275.53;6185814;22;45145;-80
2022/03/12 08:30:50;;;;;;;;;5.00;5.00;;;;;10.66;64.56;101301.06;6185677;23;45297;-79
2022/03/12 08:33:25;;;;;;;;;5.00;4.50;;;;;10.62;64.34;101291.41;6183315;23;45488;-79
2022/03/12 08:35:52;;;;;;;;;7.00;5.25;;;;;10.67;64.16;101300.22;6184676;22;45215;-80
2022/03/12 08:38:27;;;;;;;;;;;;;;;;;;;;;
2022/03/12 08:40:58;;;;;;;;;8.25;4.75;;;;;10.76;64.17;101321.31;6183617;23;67524;-80
2022/03/12 08:43:36;;;;;;;;;5.00;4.00;;;;;10.74;64.09;101317.78;6182783;23;45222;-80
2022/03/12 08:46:05;;;;;;;;;5.00;5.00;;;;;10.70;63.89;101302.88;6183099;23;47091;-80
2022/03/12 08:48:43;;;;;;;;;3.25;3.25;;;;;10.69;63.97;101304.63;6184736;22;45383;-80
2022/03/12 08:51:12;;;;;;;;;3.75;3.75;;;;;10.77;63.63;101308.16;6185117;22;45198;-79
2022/03/12 08:53:38;;;;;;;;;4.50;3.75;;;;;10.75;63.91;101307.28;6184357;23;45413;-79
2022/03/12 08:56:05;;;;;;;;;4.25;4.25;;;;;10.76;63.65;101309.03;6184407;22;45188;-78
2022/03/12 08:58:42;;;;;;;;;6.50;6.50;;;;;10.84;63.87;101318.72;6185349;22;45248;-79
2022/03/12 09:01:08;;;;;;;;;6.50;6.00;;;;;10.85;63.71;101313.44;6186543;23;45463;-79
2022/03/12 09:03:38;;;;;;;;;2.25;2.25;;;;;10.79;63.73;101293.22;6184726;23;45482;-79
2022/03/12 09:06:27;;;;;;;;;6.75;5.75;;;;;10.82;63.56;101302.91;6184837;23;46971;-79
2022/03/12 09:08:53;;;;;;;;;4.00;3.50;;;;;10.82;63.38;101290.63;6185584;23;45382;-79
2022/03/12 09:11:25;;;;;;;;;3.50;2.75;;;;;10.96;63.28;101314.38;6185515;23;45232;-79
2022/03/12 09:13:53;;;;;;;;;5.00;5.00;;;;;10.99;63.69;101303.00;6185234;23;45296;-79
2022/03/12 09:16:19;;;;;;;;;3.25;3.25;;;;;11.09;63.25;101309.16;6184718;23;47233;-80
2022/03/12 09:18:44;;;;;;;;;5.00;5.00;;;;;11.08;63.27;101294.22;6185575;23;45187;-79
2022/03/12 09:21:10;;;;;;;;;2.50;2.00;;;;;11.20;63.25;101303.06;6183832;23;45411;-78
2022/03/12 09:23:46;;;;;;;;;4.50;4.50;;;;;11.31;63.04;101300.44;6185795;22;45379;-78
2022/03/12 09:26:16;;;;;;;;;4.00;4.00;;;;;11.36;62.75;101296.06;6183337;22;46653;-79
2022/03/12 09:28:42;;;;;;;;;7.50;5.00;;;;;11.35;62.79;101285.50;6185156;23;45245;-79
2022/03/12 09:31:09;;;;;;;;;4.75;4.75;;;;;11.53;62.87;101311.03;6186417;23;45337;-78
2022/03/12 09:33:37;;;;;;;;;3.50;3.00;;;;;11.60;62.63;101318.03;6187581;23;45436;-79
2022/03/12 09:36:07;;;;;;;;;4.75;3.50;;;;;11.60;62.48;101303.13;6188311;23;47323;-80
2022/03/12 09:38:33;;;;;;;;;4.50;4.50;;;;;11.73;62.23;101306.63;6186681;23;45292;-80
2022/03/12 09:41:01;;;;;;;;;6.00;5.00;;;;;11.76;62.01;101300.47;6185614;23;45292;-79
2022/03/12 09:43:29;;;;;;;;;5.00;5.00;;;;;11.84;61.96;101301.34;6186601;23;45350;-77
2022/03/12 09:45:57;;;;;;;;;5.00;4.00;;;;;11.98;62.00;101314.59;6185603;23;47620;-80
2022/03/12 09:48:25;;;;;;;;;4.75;4.00;;;;;12.00;61.11;101304.91;6185897;23;45302;-80
2022/03/12 09:50:53;;;;;;;;;8.25;5.50;;;;;11.91;61.44;101292.59;6184707;23;45488;-81
2022/03/12 09:53:29;;;;;;;;;;;;;;;;;;;;;
2022/03/12 09:55:54;;;;;;;;;4.00;4.00;;;;;12.05;61.19;101305.78;6185651;23;74098;-79
2022/03/12 09:58:20;;;;;;;;;11.00;11.00;;;;;12.00;61.17;101300.53;6184906;23;45363;-79
2022/03/12 10:00:46;;;;;;;;;4.00;3.00;;;;;12.13;61.18;101298.75;6184690;23;45291;-78
2022/03/12 10:03:16;;;;;;;;;6.75;6.00;;;;;12.13;61.11;101286.44;6187078;22;45344;-79
2022/03/12 10:05:42;;;;;;;;;9.00;5.00;;;;;12.16;60.89;101285.53;6187946;23;45255;-79
2022/03/12 10:08:08;;;;;;;;;6.00;5.00;;;;;12.22;60.92;101289.94;6186729;23;45152;-79
2022/03/12 10:10:34;;;;;;;;;4.50;4.25;;;;;12.28;60.99;101292.56;6186969;23;45149;-80
2022/03/12 10:13:00;;;;;;;;;5.00;4.25;;;;;12.36;60.78;101298.72;6183736;22;45430;-79
2022/03/12 10:15:29;;;;;;;;;5.25;5.00;;;;;12.38;60.82;101285.53;6184347;23;47456;-80
2022/03/12 10:17:54;;;;;;;;;5.75;4.75;;;;;12.56;60.88;101293.38;6184959;23;45687;-79
2022/03/12 10:27:55;;;;;;;;;;;;;;;;;;;;;
2022/03/12 10:34:03;;;;;;;;;1.50;1.00;;;;;12.88;59.92;101250.97;6144185;23;45505;-81
2022/03/12 10:51:08;;;;;;;;;;;;;;;;;;;;;
2022/03/12 10:54:15;;;;;;;;;;;;;;;;;;;;;
2022/03/12 10:56:57;;;;;;;;;4.00;4.00;;;;;13.32;59.15;101263.09;6060941;23;73348;-80
2022/03/12 10:59:29;;;;;;;;;4.00;3.00;;;;;13.30;59.04;101248.13;6107795;23;45334;-80
2022/03/12 11:05:10;;;;;;;;;2.67;2.00;;;;;13.45;58.85;101258.59;6142455;23;45496;-83
2022/03/12 11:08:15;;;;;;;;;;;;;;;;;;;;;
2022/03/12 11:11:45;;;;;;;;;;;;;;;;;;;;;
2022/03/12 18:45:47;;;;;;;;;4.00;3.00;;;;;11.09;59.90;100970.13;6242504;22;45674;-81
2022/03/12 18:48:58;;;;;;;;;2.00;2.00;;;;;11.17;59.77;100975.38;6214094;22;48205;-80
2022/03/12 18:51:34;;;;;;;;;4.00;4.00;;;;;11.21;59.57;100966.59;6227521;22;45746;-80
2022/03/12 18:54:54;;;;;;;;;;;;;;;;;;;;;
2022/03/12 18:58:25;;;;;;;;;2.75;2.75;;;;;11.21;59.60;100962.19;6179946;22;71923;-82
2022/03/12 19:01:07;;;;;;;;;;;;;;;;;;;;;
2022/03/12 20:33:08;;;;;;;;;;;;;;;;;;;;;
2022/03/12 20:36:03;;;;;;;;;7.00;6.75;;;;;10.80;62.20;100913.13;6124649;23;72372;-80
2022/03/12 20:56:31;;;;;;;;;;;;;;;;;;;;;
2022/03/12 21:10:30;;;;;;;;;9.00;9.00;;;;;10.65;63.29;100881.56;5864553;24;45410;-82
2022/03/12 21:13:31;;;;;;;;;;;;;;;;;;;;;
2022/03/12 21:16:50;;;;;;;;;10.75;9.00;;;;;10.67;63.43;100869.28;6117084;23;73243;-84
2022/03/12 21:19:42;;;;;;;;;10.00;9.50;;;;;10.69;63.09;100874.50;6037882;23;45427;-82
2022/03/12 21:22:07;;;;;;;;;11.50;10.00;;;;;10.67;63.09;100850.84;6117153;23;45468;-81
2022/03/12 21:24:38;;;;;;;;;12.00;10.75;;;;;10.70;63.16;100863.13;6245490;22;46812;-81
2022/03/12 21:27:21;;;;;;;;;12.50;9.75;;;;;10.58;62.88;100838.56;6277046;22;45311;-82
2022/03/12 21:29:52;;;;;;;;;10.25;8.00;;;;;10.70;63.31;100861.34;6248953;22;45691;-81
2022/03/12 21:32:21;;;;;;;;;11.00;10.50;;;;;10.58;63.09;100835.03;6250015;22;44784;-82
2022/03/12 21:34:47;;;;;;;;;8.50;8.50;;;;;10.64;63.07;100847.31;6251058;22;48147;-80
2022/03/12 21:37:16;;;;;;;;;6.75;6.75;;;;;10.61;63.57;100835.03;6251987;22;45253;-81
2022/03/12 21:39:45;;;;;;;;;9.25;8.25;;;;;10.68;63.43;100857.84;6255248;22;45382;-81
2022/03/12 21:42:30;;;;;;;;;14.25;10.25;;;;;10.69;63.47;100854.34;6254380;22;45478;-83
2022/03/12 21:44:59;;;;;;;;;12.00;11.00;;;;;10.70;63.70;100852.59;6251027;22;47098;-81
2022/03/12 21:47:27;;;;;;;;;10.00;10.00;;;;;10.68;63.70;100854.34;6250215;22;45383;-82
2022/03/12 21:49:55;;;;;;;;;8.00;8.00;;;;;10.63;63.88;100841.19;6277547;22;45408;-81
2022/03/12 21:52:20;;;;;;;;;10.50;10.25;;;;;10.67;63.66;100845.56;6248038;22;45548;-80
2022/03/12 21:54:48;;;;;;;;;8.00;7.00;;;;;10.63;63.77;100832.41;6276078;22;46180;-81
2022/03/12 21:57:14;;;;;;;;;11.50;9.25;;;;;10.75;64.15;100854.31;6252226;22;45749;-81
2022/03/12 21:59:42;;;;;;;;;8.50;7.75;;;;;10.65;64.00;100841.19;6281621;22;45448;-82
2022/03/12 22:02:21;;;;;;;;;9.25;9.25;;;;;10.65;63.81;100835.91;6255062;22;45571;-80
2022/03/12 22:04:55;;;;;;;;;8.50;8.50;;;;;10.77;64.00;100862.19;6255843;22;46137;-81
2022/03/12 22:07:37;;;;;;;;;9.75;8.00;;;;;10.74;63.78;100854.31;6254501;22;45624;-83
2022/03/12 22:10:24;;;;;;;;;10.75;7.50;;;;;10.66;64.06;100837.66;6254559;22;45511;-83
2022/03/12 22:12:54;;;;;;;;;11.00;8.75;;;;;10.66;64.38;100833.25;6253240;22;45406;-79
2022/03/12 22:15:21;;;;;;;;;9.75;9.25;;;;;10.76;64.56;100842.91;6252712;22;47953;-81
2022/03/12 22:18:13;;;;;;;;;13.00;10.00;;;;;10.78;64.44;100846.41;6281928;22;45450;-80
2022/03/12 22:20:39;;;;;;;;;7.75;6.75;;;;;10.78;64.44;100849.03;6251433;22;45443;-80
2022/03/12 22:23:10;;;;;;;;;9.25;9.25;;;;;10.77;64.53;100851.66;6276481;22;45513;-82
2022/03/12 22:25:39;;;;;;;;;11.50;10.25;;;;;10.71;64.95;100842.03;6276039;22;45414;-81
2022/03/12 22:28:09;;;;;;;;;8.00;6.25;;;;;10.71;64.69;100854.31;6250837;22;45280;-80
2022/03/12 22:31:28;;;;;;;;;8.50;7.25;;;;;10.74;65.16;100854.31;6280858;22;45410;-85
2022/03/12 22:33:53;;;;;;;;;7.25;7.00;;;;;10.58;64.91;100829.78;6247821;22;45627;-80
2022/03/12 22:36:24;;;;;;;;;6.00;6.00;;;;;10.58;65.36;100848.22;6250453;22;47485;-80
2022/03/12 22:38:53;;;;;;;;;7.75;6.75;;;;;10.65;65.54;100846.44;6248570;22;45470;-79
2022/03/12 22:41:21;;;;;;;;;7.25;7.25;;;;;10.56;65.58;100834.19;6245845;22;45624;-79
2022/03/12 22:43:50;;;;;;;;;8.75;7.00;;;;;10.57;65.45;100842.06;6249901;22;45432;-80
2022/03/12 22:46:16;;;;;;;;;7.25;7.25;;;;;10.63;65.43;100854.34;6248496;22;48322;-80
2022/03/12 22:48:46;;;;;;;;;11.00;7.50;;;;;10.65;65.56;100863.13;6247917;22;45482;-80
2022/03/12 22:51:14;;;;;;;;;11.75;10.00;;;;;10.60;65.50;100852.59;6276619;22;45563;-81
2022/03/12 22:53:41;;;;;;;;;9.75;9.00;;;;;10.62;65.84;100843.84;6251311;22;45474;-79
2022/03/12 22:56:10;;;;;;;;;5.50;5.50;;;;;10.60;65.94;100836.78;6250486;22;46692;-80
2022/03/12 22:58:36;;;;;;;;;7.00;6.00;;;;;10.69;65.87;100845.56;6251192;22;45506;-81
2022/03/12 23:01:12;;;;;;;;;9.00;8.75;;;;;10.70;65.87;100845.56;6253802;22;45509;-80
2022/03/12 23:09:13;;;;;;;;;6.50;6.50;;;;;10.58;65.68;100814.88;6281208;22;45320;-80
2022/03/12 23:11:48;;;;;;;;;11.50;11.00;;;;;10.69;65.95;100842.91;6249381;22;45400;-79
2022/03/12 23:14:25;;;;;;;;;10.00;8.25;;;;;10.58;66.09;100816.63;6279988;22;45387;-78
2022/03/12 23:16:50;;;;;;;;;8.00;8.00;;;;;10.65;66.01;100822.75;6280132;22;46277;-79
2022/03/12 23:19:23;;;;;;;;;8.00;7.50;;;;;10.65;66.52;100831.53;6278760;22;44789;-79
2022/03/12 23:21:57;;;;;;;;;7.50;7.50;;;;;10.64;66.66;100832.41;6279626;22;45351;-79
2022/03/12 23:24:23;;;;;;;;;8.25;7.25;;;;;10.58;66.68;100817.53;6252752;22;45613;-80
2022/03/12 23:26:52;;;;;;;;;9.75;7.75;;;;;10.47;66.88;100811.38;6251916;22;48037;-81
2022/03/12 23:29:27;;;;;;;;;8.25;8.00;;;;;10.52;67.14;100817.50;6251395;22;45512;-80
2022/03/12 23:32:03;;;;;;;;;9.00;7.50;;;;;10.49;67.21;100817.53;6252918;22;45511;-81
2022/03/12 23:34:30;;;;;;;;;10.00;8.75;;;;;10.52;67.25;100819.28;6253065;22;44812;-80
2022/03/12 23:36:57;;;;;;;;;8.00;6.50;;;;;10.51;67.24;100823.66;6279664;22;45701;-79
2022/03/12 23:39:28;;;;;;;;;11.75;7.75;;;;;10.48;67.74;100809.66;6250805;22;45279;-79
2022/03/12 23:41:55;;;;;;;;;10.50;8.00;;;;;10.42;67.82;100805.25;6251770;22;45751;-79
2022/03/12 23:44:31;;;;;;;;;9.25;9.25;;;;;10.48;67.57;100807.88;6280258;22;44895;-78
2022/03/12 23:46:58;;;;;;;;;11.75;10.75;;;;;10.47;67.50;100806.13;6251035;22;46895;-79
2022/03/12 23:49:25;;;;;;;;;10.25;9.25;;;;;10.36;67.52;100797.38;6250239;22;45407;-78
2022/03/12 23:52:14;;;;;;;;;13.75;10.25;;;;;10.45;67.55;100807.00;6249739;22;45422;-81
2022/03/12 23:54:45;;;;;;;;;9.25;7.25;;;;;10.42;67.82;100807.00;6249758;22;45601;-78
2022/03/12 23:57:18;;;;;;;;;10.00;8.75;;;;;10.44;67.58;100800.00;6277342;22;47325;-79
2022/03/12 23:59:56;;;;;;;;;11.75;10.25;;;;;10.41;67.71;100800.00;6251937;22;45249;-78
